sensor_id;sensor_type;location;lat;lon;timestamp;P1;durP1;ratioP1;P2;durP2;ratioP2
9485;SDS011;4781;48.776;9.200;2023-01-29T00:00:13;8.77;;;6.43;;
9485;SDS011;4781;48.776;9.200;2023-01-29T00:02:42;10.15;;;7.47;;
9485;SDS011;4781;48.776;9.200;2023-01-29T00:05:11;10.95;;;7.15;;
9485;SDS011;4781;48.776;9.200;2023-01-29T00:07:39;10.13;;;6.83;;
9485;SDS011;4781;48.776;9.200;2023-01-29T00:10:08;10.25;;;7.17;;
9485;SDS011;4781;48.776;9.200;2023-01-29T00:12:37;9.60;;;6.90;;
9485;SDS011;4781;48.776;9.200;2023-01-29T00:15:06;10.80;;;7.78;;
9485;SDS011;4781;48.776;9.200;2023-01-29T00:17:35;11.38;;;7.65;;
9485;SDS011;4781;48.776;9.200;2023-01-29T00:20:03;11.38;;;7.95;;
9485;SDS011;4781;48.776;9.200;2023-01-29T00:22:32;10.93;;;7.65;;
9485;SDS011;4781;48.776;9.200;2023-01-29T00:25:01;10.53;;;7.47;;
9485;SDS011;4781;48.776;9.200;2023-01-29T00:27:29;12.75;;;7.90;;
9485;SDS011;4781;48.776;9.200;2023-01-29T00:29:58;10.32;;;7.30;;
9485;SDS011;4781;48.776;9.200;2023-01-29T00:32:37;10.30;;;7.03;;
9485;SDS011;4781;48.776;9.200;2023-01-29T00:35:06;10.32;;;7.40;;
9485;SDS011;4781;48.776;9.200;2023-01-29T00:37:36;10.05;;;6.95;;
9485;SDS011;4781;48.776;9.200;2023-01-29T00:40:04;12.30;;;8.53;;
9485;SDS011;4781;48.776;9.200;2023-01-29T00:42:34;12.53;;;7.65;;
9485;SDS011;4781;48.776;9.200;2023-01-29T00:45:20;11.55;;;7.65;;
9485;SDS011;4781;48.776;9.200;2023-01-29T00:47:48;12.28;;;8.80;;
9485;SDS011;4781;48.776;9.200;2023-01-29T00:50:17;10.13;;;6.87;;
9485;SDS011;4781;48.776;9.200;2023-01-29T00:52:45;11.12;;;8.03;;
9485;SDS011;4781;48.776;9.200;2023-01-29T00:55:16;11.57;;;7.87;;
9485;SDS011;4781;48.776;9.200;2023-01-29T00:57:44;11.03;;;7.33;;
9485;SDS011;4781;48.776;9.200;2023-01-29T01:00:15;10.33;;;7.20;;
9485;SDS011;4781;48.776;9.200;2023-01-29T01:02:44;11.57;;;7.72;;
9485;SDS011;4781;48.776;9.200;2023-01-29T01:05:31;8.33;;;6.62;;
9485;SDS011;4781;48.776;9.200;2023-01-29T01:07:59;11.00;;;7.33;;
9485;SDS011;4781;48.776;9.200;2023-01-29T01:10:29;10.30;;;7.60;;
9485;SDS011;4781;48.776;9.200;2023-01-29T01:13:00;10.58;;;7.65;;
9485;SDS011;4781;48.776;9.200;2023-01-29T01:15:35;11.73;;;7.00;;
9485;SDS011;4781;48.776;9.200;2023-01-29T01:18:05;10.95;;;7.53;;
9485;SDS011;4781;48.776;9.200;2023-01-29T01:20:34;11.05;;;7.30;;
9485;SDS011;4781;48.776;9.200;2023-01-29T01:23:04;10.90;;;7.42;;
9485;SDS011;4781;48.776;9.200;2023-01-29T01:25:32;12.65;;;6.83;;
9485;SDS011;4781;48.776;9.200;2023-01-29T01:28:01;10.72;;;7.45;;
9485;SDS011;4781;48.776;9.200;2023-01-29T01:30:29;9.63;;;7.22;;
9485;SDS011;4781;48.776;9.200;2023-01-29T01:32:57;12.65;;;7.12;;
9485;SDS011;4781;48.776;9.200;2023-01-29T01:35:26;11.97;;;7.03;;
9485;SDS011;4781;48.776;9.200;2023-01-29T01:37:54;10.60;;;6.75;;
9485;SDS011;4781;48.776;9.200;2023-01-29T01:40:23;10.82;;;7.28;;
9485;SDS011;4781;48.776;9.200;2023-01-29T01:42:54;9.25;;;6.75;;
9485;SDS011;4781;48.776;9.200;2023-01-29T01:45:32;9.10;;;7.05;;
9485;SDS011;4781;48.776;9.200;2023-01-29T01:48:12;9.23;;;6.70;;
9485;SDS011;4781;48.776;9.200;2023-01-29T01:50:49;10.45;;;6.37;;
9485;SDS011;4781;48.776;9.200;2023-01-29T01:53:32;12.73;;;6.60;;
9485;SDS011;4781;48.776;9.200;2023-01-29T01:56:05;9.63;;;7.17;;
9485;SDS011;4781;48.776;9.200;2023-01-29T01:58:42;10.13;;;7.00;;
9485;SDS011;4781;48.776;9.200;2023-01-29T02:01:18;10.68;;;7.53;;
9485;SDS011;4781;48.776;9.200;2023-01-29T02:03:58;10.82;;;7.17;;
9485;SDS011;4781;48.776;9.200;2023-01-29T02:06:47;11.83;;;6.60;;
9485;SDS011;4781;48.776;9.200;2023-01-29T02:09:36;9.23;;;6.95;;
9485;SDS011;4781;48.776;9.200;2023-01-29T02:12:09;12.95;;;7.30;;
9485;SDS011;4781;48.776;9.200;2023-01-29T02:14:39;10.93;;;7.35;;
9485;SDS011;4781;48.776;9.200;2023-01-29T02:17:13;9.23;;;6.20;;
9485;SDS011;4781;48.776;9.200;2023-01-29T02:28:45;12.00;;;7.12;;
9485;SDS011;4781;48.776;9.200;2023-01-29T02:32:34;10.93;;;7.30;;
9485;SDS011;4781;48.776;9.200;2023-01-29T02:34:37;9.70;;;7.12;;
9485;SDS011;4781;48.776;9.200;2023-01-29T02:37:35;9.30;;;6.67;;
9485;SDS011;4781;48.776;9.200;2023-01-29T02:40:11;10.55;;;7.15;;
9485;SDS011;4781;48.776;9.200;2023-01-29T02:42:56;11.57;;;6.97;;
9485;SDS011;4781;48.776;9.200;2023-01-29T02:45:39;9.78;;;6.95;;
9485;SDS011;4781;48.776;9.200;2023-01-29T02:48:19;11.08;;;7.08;;
9485;SDS011;4781;48.776;9.200;2023-01-29T02:50:51;10.72;;;7.50;;
9485;SDS011;4781;48.776;9.200;2023-01-29T02:53:37;9.05;;;6.85;;
9485;SDS011;4781;48.776;9.200;2023-01-29T02:56:23;9.20;;;6.50;;
9485;SDS011;4781;48.776;9.200;2023-01-29T03:01:41;12.07;;;6.83;;
9485;SDS011;4781;48.776;9.200;2023-01-29T03:04:19;10.90;;;6.95;;
9485;SDS011;4781;48.776;9.200;2023-01-29T03:06:56;9.83;;;6.50;;
9485;SDS011;4781;48.776;9.200;2023-01-29T03:12:08;9.98;;;7.00;;
9485;SDS011;4781;48.776;9.200;2023-01-29T03:14:37;9.73;;;6.83;;
9485;SDS011;4781;48.776;9.200;2023-01-29T03:17:26;9.35;;;7.03;;
9485;SDS011;4781;48.776;9.200;2023-01-29T03:19:59;10.72;;;7.03;;
9485;SDS011;4781;48.776;9.200;2023-01-29T03:22:32;9.35;;;6.55;;
9485;SDS011;4781;48.776;9.200;2023-01-29T03:25:02;9.25;;;6.67;;
9485;SDS011;4781;48.776;9.200;2023-01-29T03:27:52;12.00;;;7.25;;
9485;SDS011;4781;48.776;9.200;2023-01-29T03:30:49;10.18;;;6.83;;
9485;SDS011;4781;48.776;9.200;2023-01-29T03:33:42;10.10;;;6.80;;
9485;SDS011;4781;48.776;9.200;2023-01-29T03:36:26;10.13;;;6.17;;
9485;SDS011;4781;48.776;9.200;2023-01-29T03:38:57;9.85;;;6.25;;
9485;SDS011;4781;48.776;9.200;2023-01-29T03:41:31;8.23;;;5.95;;
9485;SDS011;4781;48.776;9.200;2023-01-29T03:44:09;9.38;;;6.15;;
9485;SDS011;4781;48.776;9.200;2023-01-29T03:46:49;10.32;;;6.83;;
9485;SDS011;4781;48.776;9.200;2023-01-29T03:52:08;10.38;;;6.72;;
9485;SDS011;4781;48.776;9.200;2023-01-29T03:54:53;9.43;;;6.03;;
9485;SDS011;4781;48.776;9.200;2023-01-29T03:57:41;9.83;;;6.42;;
9485;SDS011;4781;48.776;9.200;2023-01-29T04:00:20;10.80;;;6.90;;
9485;SDS011;4781;48.776;9.200;2023-01-29T04:05:51;8.88;;;6.17;;
9485;SDS011;4781;48.776;9.200;2023-01-29T04:08:35;10.93;;;6.75;;
9485;SDS011;4781;48.776;9.200;2023-01-29T04:11:08;9.28;;;6.10;;
9485;SDS011;4781;48.776;9.200;2023-01-29T04:13:39;9.05;;;6.55;;
9485;SDS011;4781;48.776;9.200;2023-01-29T04:16:09;10.72;;;6.20;;
9485;SDS011;4781;48.776;9.200;2023-01-29T04:18:43;10.35;;;6.60;;
9485;SDS011;4781;48.776;9.200;2023-01-29T04:21:14;10.00;;;6.65;;
9485;SDS011;4781;48.776;9.200;2023-01-29T04:23:43;9.25;;;6.37;;
9485;SDS011;4781;48.776;9.200;2023-01-29T04:26:23;9.28;;;6.67;;
9485;SDS011;4781;48.776;9.200;2023-01-29T04:29:16;9.88;;;6.17;;
9485;SDS011;4781;48.776;9.200;2023-01-29T04:37:43;12.00;;;7.08;;
9485;SDS011;4781;48.776;9.200;2023-01-29T04:40:32;9.50;;;6.30;;
9485;SDS011;4781;48.776;9.200;2023-01-29T04:43:21;10.18;;;6.85;;
9485;SDS011;4781;48.776;9.200;2023-01-29T04:46:08;11.38;;;7.25;;
9485;SDS011;4781;48.776;9.200;2023-01-29T04:48:45;10.23;;;6.75;;
9485;SDS011;4781;48.776;9.200;2023-01-29T04:51:57;10.85;;;7.45;;
9485;SDS011;4781;48.776;9.200;2023-01-29T04:57:08;8.88;;;6.70;;
9485;SDS011;4781;48.776;9.200;2023-01-29T04:59:50;9.05;;;6.40;;
9485;SDS011;4781;48.776;9.200;2023-01-29T05:02:26;10.95;;;6.58;;
9485;SDS011;4781;48.776;9.200;2023-01-29T05:04:55;8.80;;;6.30;;
9485;SDS011;4781;48.776;9.200;2023-01-29T05:07:26;9.25;;;6.60;;
9485;SDS011;4781;48.776;9.200;2023-01-29T05:09:57;10.82;;;6.12;;
9485;SDS011;4781;48.776;9.200;2023-01-29T05:12:27;11.15;;;6.67;;
9485;SDS011;4781;48.776;9.200;2023-01-29T05:14:57;9.98;;;6.92;;
9485;SDS011;4781;48.776;9.200;2023-01-29T05:17:29;10.40;;;7.05;;
9485;SDS011;4781;48.776;9.200;2023-01-29T05:19:58;10.18;;;6.62;;
9485;SDS011;4781;48.776;9.200;2023-01-29T05:22:26;10.15;;;6.20;;
9485;SDS011;4781;48.776;9.200;2023-01-29T05:24:56;10.78;;;6.75;;
9485;SDS011;4781;48.776;9.200;2023-01-29T05:27:29;9.80;;;6.35;;
9485;SDS011;4781;48.776;9.200;2023-01-29T05:30:17;8.40;;;6.60;;
9485;SDS011;4781;48.776;9.200;2023-01-29T05:32:46;10.78;;;7.15;;
9485;SDS011;4781;48.776;9.200;2023-01-29T05:35:14;10.03;;;6.70;;
9485;SDS011;4781;48.776;9.200;2023-01-29T05:37:43;9.30;;;6.65;;
9485;SDS011;4781;48.776;9.200;2023-01-29T05:40:11;10.53;;;7.28;;
9485;SDS011;4781;48.776;9.200;2023-01-29T05:42:40;12.30;;;7.33;;
9485;SDS011;4781;48.776;9.200;2023-01-29T05:45:09;9.90;;;7.00;;
9485;SDS011;4781;48.776;9.200;2023-01-29T05:47:37;11.80;;;7.10;;
9485;SDS011;4781;48.776;9.200;2023-01-29T05:50:06;10.48;;;7.25;;
9485;SDS011;4781;48.776;9.200;2023-01-29T05:52:35;10.28;;;6.67;;
9485;SDS011;4781;48.776;9.200;2023-01-29T05:55:04;10.50;;;7.55;;
9485;SDS011;4781;48.776;9.200;2023-01-29T05:57:33;10.15;;;7.37;;
9485;SDS011;4781;48.776;9.200;2023-01-29T06:00:02;10.15;;;7.10;;
9485;SDS011;4781;48.776;9.200;2023-01-29T06:02:31;9.60;;;6.92;;
9485;SDS011;4781;48.776;9.200;2023-01-29T06:04:59;11.50;;;7.75;;
9485;SDS011;4781;48.776;9.200;2023-01-29T06:10:04;12.00;;;8.13;;
9485;SDS011;4781;48.776;9.200;2023-01-29T06:12:33;11.50;;;9.48;;
9485;SDS011;4781;48.776;9.200;2023-01-29T06:15:01;12.20;;;8.08;;
9485;SDS011;4781;48.776;9.200;2023-01-29T06:17:30;10.68;;;7.87;;
9485;SDS011;4781;48.776;9.200;2023-01-29T06:19:58;11.60;;;7.53;;
9485;SDS011;4781;48.776;9.200;2023-01-29T06:22:27;12.05;;;7.53;;
9485;SDS011;4781;48.776;9.200;2023-01-29T06:24:55;10.05;;;7.25;;
9485;SDS011;4781;48.776;9.200;2023-01-29T06:27:23;10.03;;;7.00;;
9485;SDS011;4781;48.776;9.200;2023-01-29T06:29:52;12.63;;;7.35;;
9485;SDS011;4781;48.776;9.200;2023-01-29T06:32:20;10.98;;;7.30;;
9485;SDS011;4781;48.776;9.200;2023-01-29T06:34:49;15.30;;;7.70;;
9485;SDS011;4781;48.776;9.200;2023-01-29T06:37:18;11.43;;;8.05;;
9485;SDS011;4781;48.776;9.200;2023-01-29T06:39:46;11.38;;;7.37;;
9485;SDS011;4781;48.776;9.200;2023-01-29T06:42:14;11.18;;;7.55;;
9485;SDS011;4781;48.776;9.200;2023-01-29T06:44:43;10.10;;;7.00;;
9485;SDS011;4781;48.776;9.200;2023-01-29T06:47:11;10.95;;;7.30;;
9485;SDS011;4781;48.776;9.200;2023-01-29T06:49:40;10.18;;;6.97;;
9485;SDS011;4781;48.776;9.200;2023-01-29T06:52:09;10.60;;;7.05;;
9485;SDS011;4781;48.776;9.200;2023-01-29T06:54:37;13.05;;;7.03;;
9485;SDS011;4781;48.776;9.200;2023-01-29T06:57:06;9.85;;;6.80;;
9485;SDS011;4781;48.776;9.200;2023-01-29T06:59:34;10.03;;;6.37;;
9485;SDS011;4781;48.776;9.200;2023-01-29T07:02:03;12.82;;;7.28;;
9485;SDS011;4781;48.776;9.200;2023-01-29T07:04:31;10.88;;;7.28;;
9485;SDS011;4781;48.776;9.200;2023-01-29T07:07:00;9.60;;;7.17;;
9485;SDS011;4781;48.776;9.200;2023-01-29T07:09:29;11.93;;;7.15;;
9485;SDS011;4781;48.776;9.200;2023-01-29T07:11:58;10.98;;;7.22;;
9485;SDS011;4781;48.776;9.200;2023-01-29T07:14:26;9.88;;;7.00;;
9485;SDS011;4781;48.776;9.200;2023-01-29T07:16:55;13.48;;;6.70;;
9485;SDS011;4781;48.776;9.200;2023-01-29T07:19:24;10.95;;;6.95;;
9485;SDS011;4781;48.776;9.200;2023-01-29T07:21:52;11.57;;;6.90;;
9485;SDS011;4781;48.776;9.200;2023-01-29T07:24:20;9.50;;;7.17;;
9485;SDS011;4781;48.776;9.200;2023-01-29T07:26:49;11.33;;;7.53;;
9485;SDS011;4781;48.776;9.200;2023-01-29T07:29:18;13.70;;;7.20;;
9485;SDS011;4781;48.776;9.200;2023-01-29T07:31:46;10.43;;;7.90;;
9485;SDS011;4781;48.776;9.200;2023-01-29T07:34:15;11.22;;;7.35;;
9485;SDS011;4781;48.776;9.200;2023-01-29T07:36:43;10.08;;;6.50;;
9485;SDS011;4781;48.776;9.200;2023-01-29T07:39:12;11.50;;;7.15;;
9485;SDS011;4781;48.776;9.200;2023-01-29T07:41:40;10.45;;;7.80;;
9485;SDS011;4781;48.776;9.200;2023-01-29T07:44:09;11.40;;;7.33;;
9485;SDS011;4781;48.776;9.200;2023-01-29T07:46:37;12.75;;;7.35;;
9485;SDS011;4781;48.776;9.200;2023-01-29T07:49:05;11.33;;;7.33;;
9485;SDS011;4781;48.776;9.200;2023-01-29T07:51:34;11.40;;;7.65;;
9485;SDS011;4781;48.776;9.200;2023-01-29T07:54:02;11.25;;;7.45;;
9485;SDS011;4781;48.776;9.200;2023-01-29T07:56:31;12.88;;;7.45;;
9485;SDS011;4781;48.776;9.200;2023-01-29T07:58:59;12.43;;;7.60;;
9485;SDS011;4781;48.776;9.200;2023-01-29T08:01:28;12.82;;;6.83;;
9485;SDS011;4781;48.776;9.200;2023-01-29T08:03:56;10.80;;;7.12;;
9485;SDS011;4781;48.776;9.200;2023-01-29T08:06:24;13.00;;;7.55;;
9485;SDS011;4781;48.776;9.200;2023-01-29T08:08:53;11.75;;;7.62;;
9485;SDS011;4781;48.776;9.200;2023-01-29T08:11:22;11.08;;;7.12;;
9485;SDS011;4781;48.776;9.200;2023-01-29T08:13:50;11.83;;;7.33;;
9485;SDS011;4781;48.776;9.200;2023-01-29T08:16:19;10.40;;;6.83;;
9485;SDS011;4781;48.776;9.200;2023-01-29T08:18:48;11.00;;;7.17;;
9485;SDS011;4781;48.776;9.200;2023-01-29T08:21:16;12.13;;;8.13;;
9485;SDS011;4781;48.776;9.200;2023-01-29T08:23:45;12.00;;;8.03;;
9485;SDS011;4781;48.776;9.200;2023-01-29T08:26:13;11.90;;;8.03;;
9485;SDS011;4781;48.776;9.200;2023-01-29T08:28:41;11.03;;;7.30;;
9485;SDS011;4781;48.776;9.200;2023-01-29T08:31:18;13.53;;;7.97;;
9485;SDS011;4781;48.776;9.200;2023-01-29T08:33:45;11.95;;;8.08;;
9485;SDS011;4781;48.776;9.200;2023-01-29T08:36:14;13.80;;;8.83;;
9485;SDS011;4781;48.776;9.200;2023-01-29T08:38:42;13.35;;;8.70;;
9485;SDS011;4781;48.776;9.200;2023-01-29T08:41:10;12.23;;;7.90;;
9485;SDS011;4781;48.776;9.200;2023-01-29T08:43:39;11.78;;;7.67;;
9485;SDS011;4781;48.776;9.200;2023-01-29T08:46:07;11.90;;;7.70;;
9485;SDS011;4781;48.776;9.200;2023-01-29T08:48:36;12.47;;;7.60;;
9485;SDS011;4781;48.776;9.200;2023-01-29T08:51:04;12.28;;;7.08;;
9485;SDS011;4781;48.776;9.200;2023-01-29T08:53:33;12.10;;;7.90;;
9485;SDS011;4781;48.776;9.200;2023-01-29T08:56:01;12.18;;;8.10;;
9485;SDS011;4781;48.776;9.200;2023-01-29T08:58:30;9.40;;;7.20;;
9485;SDS011;4781;48.776;9.200;2023-01-29T09:01:13;11.70;;;7.95;;
9485;SDS011;4781;48.776;9.200;2023-01-29T09:03:39;10.85;;;7.90;;
9485;SDS011;4781;48.776;9.200;2023-01-29T09:06:10;14.87;;;8.25;;
9485;SDS011;4781;48.776;9.200;2023-01-29T09:08:40;14.25;;;7.72;;
9485;SDS011;4781;48.776;9.200;2023-01-29T09:11:08;10.45;;;7.60;;
9485;SDS011;4781;48.776;9.200;2023-01-29T09:13:39;10.72;;;7.85;;
9485;SDS011;4781;48.776;9.200;2023-01-29T09:16:08;12.58;;;7.92;;
9485;SDS011;4781;48.776;9.200;2023-01-29T09:18:36;11.80;;;7.95;;
9485;SDS011;4781;48.776;9.200;2023-01-29T09:21:05;11.57;;;7.83;;
9485;SDS011;4781;48.776;9.200;2023-01-29T09:23:33;11.50;;;7.37;;
9485;SDS011;4781;48.776;9.200;2023-01-29T09:26:02;12.37;;;8.68;;
9485;SDS011;4781;48.776;9.200;2023-01-29T09:28:30;13.55;;;8.63;;
9485;SDS011;4781;48.776;9.200;2023-01-29T09:31:02;13.65;;;8.98;;
9485;SDS011;4781;48.776;9.200;2023-01-29T09:33:30;10.88;;;8.30;;
9485;SDS011;4781;48.776;9.200;2023-01-29T09:36:00;12.40;;;8.40;;
9485;SDS011;4781;48.776;9.200;2023-01-29T09:38:29;13.68;;;9.23;;
9485;SDS011;4781;48.776;9.200;2023-01-29T09:43:52;14.75;;;9.08;;
9485;SDS011;4781;48.776;9.200;2023-01-29T09:49:14;12.37;;;7.78;;
9485;SDS011;4781;48.776;9.200;2023-01-29T09:52:04;12.33;;;8.68;;
9485;SDS011;4781;48.776;9.200;2023-01-29T09:54:36;12.43;;;9.53;;
9485;SDS011;4781;48.776;9.200;2023-01-29T09:57:06;14.98;;;8.93;;
9485;SDS011;4781;48.776;9.200;2023-01-29T09:59:39;15.18;;;10.20;;
9485;SDS011;4781;48.776;9.200;2023-01-29T10:02:09;17.62;;;10.23;;
9485;SDS011;4781;48.776;9.200;2023-01-29T10:04:59;13.10;;;8.80;;
9485;SDS011;4781;48.776;9.200;2023-01-29T10:08:11;13.55;;;8.98;;
9485;SDS011;4781;48.776;9.200;2023-01-29T10:10:58;11.95;;;8.63;;
9485;SDS011;4781;48.776;9.200;2023-01-29T10:13:43;13.95;;;9.75;;
9485;SDS011;4781;48.776;9.200;2023-01-29T10:16:35;13.48;;;9.88;;
9485;SDS011;4781;48.776;9.200;2023-01-29T10:25:01;13.18;;;9.65;;
9485;SDS011;4781;48.776;9.200;2023-01-29T10:27:32;11.97;;;9.50;;
9485;SDS011;4781;48.776;9.200;2023-01-29T10:33:04;14.28;;;9.23;;
9485;SDS011;4781;48.776;9.200;2023-01-29T10:35:40;12.33;;;9.20;;
9485;SDS011;4781;48.776;9.200;2023-01-29T10:38:26;13.43;;;9.83;;
9485;SDS011;4781;48.776;9.200;2023-01-29T10:43:41;11.90;;;9.53;;
9485;SDS011;4781;48.776;9.200;2023-01-29T10:58:04;14.83;;;10.43;;
9485;SDS011;4781;48.776;9.200;2023-01-29T11:03:33;14.85;;;9.48;;
9485;SDS011;4781;48.776;9.200;2023-01-29T11:06:14;13.10;;;8.63;;
9485;SDS011;4781;48.776;9.200;2023-01-29T11:08:50;10.72;;;8.80;;
9485;SDS011;4781;48.776;9.200;2023-01-29T11:11:40;13.22;;;9.28;;
9485;SDS011;4781;48.776;9.200;2023-01-29T11:14:28;13.03;;;9.13;;
9485;SDS011;4781;48.776;9.200;2023-01-29T11:17:16;14.50;;;9.38;;
9485;SDS011;4781;48.776;9.200;2023-01-29T11:19:48;18.00;;;9.85;;
9485;SDS011;4781;48.776;9.200;2023-01-29T11:22:21;12.70;;;9.03;;
9485;SDS011;4781;48.776;9.200;2023-01-29T11:30:34;11.35;;;9.15;;
9485;SDS011;4781;48.776;9.200;2023-01-29T11:33:18;10.95;;;8.85;;
9485;SDS011;4781;48.776;9.200;2023-01-29T11:35:49;11.93;;;9.50;;
9485;SDS011;4781;48.776;9.200;2023-01-29T11:38:22;13.58;;;9.78;;
9485;SDS011;4781;48.776;9.200;2023-01-29T11:40:53;12.07;;;8.68;;
9485;SDS011;4781;48.776;9.200;2023-01-29T11:43:34;11.50;;;9.15;;
9485;SDS011;4781;48.776;9.200;2023-01-29T11:46:03;14.60;;;8.85;;
9485;SDS011;4781;48.776;9.200;2023-01-29T11:48:42;12.93;;;9.73;;
9485;SDS011;4781;48.776;9.200;2023-01-29T11:51:25;13.45;;;9.40;;
9485;SDS011;4781;48.776;9.200;2023-01-29T11:53:55;14.15;;;9.98;;
9485;SDS011;4781;48.776;9.200;2023-01-29T11:56:28;14.20;;;10.68;;
9485;SDS011;4781;48.776;9.200;2023-01-29T11:58:59;12.35;;;9.20;;
9485;SDS011;4781;48.776;9.200;2023-01-29T12:01:31;12.07;;;8.85;;
9485;SDS011;4781;48.776;9.200;2023-01-29T12:04:20;15.72;;;9.78;;
9485;SDS011;4781;48.776;9.200;2023-01-29T12:06:51;13.45;;;9.73;;
9485;SDS011;4781;48.776;9.200;2023-01-29T12:09:25;11.60;;;8.43;;
9485;SDS011;4781;48.776;9.200;2023-01-29T12:11:53;13.62;;;9.28;;
9485;SDS011;4781;48.776;9.200;2023-01-29T12:17:06;12.60;;;9.05;;
9485;SDS011;4781;48.776;9.200;2023-01-29T12:19:54;11.70;;;8.77;;
9485;SDS011;4781;48.776;9.200;2023-01-29T12:22:37;11.22;;;8.35;;
9485;SDS011;4781;48.776;9.200;2023-01-29T12:27:59;12.60;;;9.00;;
9485;SDS011;4781;48.776;9.200;2023-01-29T12:30:55;12.47;;;9.13;;
9485;SDS011;4781;48.776;9.200;2023-01-29T12:33:51;14.80;;;9.48;;
9485;SDS011;4781;48.776;9.200;2023-01-29T12:39:26;14.23;;;10.03;;
9485;SDS011;4781;48.776;9.200;2023-01-29T12:42:01;13.18;;;9.28;;
9485;SDS011;4781;48.776;9.200;2023-01-29T12:44:52;14.80;;;9.28;;
9485;SDS011;4781;48.776;9.200;2023-01-29T12:47:43;14.73;;;10.00;;
9485;SDS011;4781;48.776;9.200;2023-01-29T12:50:28;13.55;;;9.88;;
9485;SDS011;4781;48.776;9.200;2023-01-29T12:55:59;14.23;;;9.98;;
9485;SDS011;4781;48.776;9.200;2023-01-29T12:58:28;12.33;;;9.98;;
9485;SDS011;4781;48.776;9.200;2023-01-29T13:06:41;15.13;;;10.00;;
9485;SDS011;4781;48.776;9.200;2023-01-29T13:09:14;13.55;;;9.58;;
9485;SDS011;4781;48.776;9.200;2023-01-29T13:12:04;12.15;;;9.65;;
9485;SDS011;4781;48.776;9.200;2023-01-29T13:14:51;13.58;;;9.83;;
9485;SDS011;4781;48.776;9.200;2023-01-29T13:17:39;12.45;;;9.15;;
9485;SDS011;4781;48.776;9.200;2023-01-29T13:22:48;12.43;;;9.10;;
9485;SDS011;4781;48.776;9.200;2023-01-29T13:25:20;12.18;;;9.30;;
9485;SDS011;4781;48.776;9.200;2023-01-29T13:27:48;12.18;;;9.63;;
9485;SDS011;4781;48.776;9.200;2023-01-29T13:30:27;12.67;;;8.70;;
9485;SDS011;4781;48.776;9.200;2023-01-29T13:33:00;13.40;;;9.60;;
9485;SDS011;4781;48.776;9.200;2023-01-29T13:35:35;12.43;;;8.90;;
9485;SDS011;4781;48.776;9.200;2023-01-29T13:38:19;10.98;;;8.65;;
9485;SDS011;4781;48.776;9.200;2023-01-29T13:41:00;12.53;;;9.18;;
9485;SDS011;4781;48.776;9.200;2023-01-29T13:43:37;16.23;;;9.28;;
9485;SDS011;4781;48.776;9.200;2023-01-29T13:46:12;12.70;;;9.08;;
9485;SDS011;4781;48.776;9.200;2023-01-29T13:48:45;13.68;;;9.50;;
9485;SDS011;4781;48.776;9.200;2023-01-29T13:51:18;15.43;;;9.45;;
9485;SDS011;4781;48.776;9.200;2023-01-29T13:53:51;13.22;;;9.70;;
9485;SDS011;4781;48.776;9.200;2023-01-29T13:59:19;14.33;;;9.68;;
9485;SDS011;4781;48.776;9.200;2023-01-29T14:04:29;12.45;;;9.15;;
9485;SDS011;4781;48.776;9.200;2023-01-29T14:06:59;13.55;;;9.50;;
9485;SDS011;4781;48.776;9.200;2023-01-29T14:15:03;14.47;;;9.10;;
9485;SDS011;4781;48.776;9.200;2023-01-29T14:20:31;13.63;;;9.33;;
9485;SDS011;4781;48.776;9.200;2023-01-29T14:23:17;14.03;;;9.88;;
9485;SDS011;4781;48.776;9.200;2023-01-29T14:25:44;14.87;;;9.93;;
9485;SDS011;4781;48.776;9.200;2023-01-29T14:28:14;13.85;;;9.75;;
9485;SDS011;4781;48.776;9.200;2023-01-29T14:30:49;14.13;;;10.35;;
9485;SDS011;4781;48.776;9.200;2023-01-29T14:33:26;16.02;;;10.68;;
9485;SDS011;4781;48.776;9.200;2023-01-29T14:36:05;13.98;;;10.25;;
9485;SDS011;4781;48.776;9.200;2023-01-29T14:38:39;13.53;;;9.58;;
9485;SDS011;4781;48.776;9.200;2023-01-29T14:41:16;12.23;;;9.63;;
9485;SDS011;4781;48.776;9.200;2023-01-29T14:43:49;14.40;;;9.98;;
9485;SDS011;4781;48.776;9.200;2023-01-29T14:49:06;11.35;;;8.55;;
9485;SDS011;4781;48.776;9.200;2023-01-29T14:51:36;11.70;;;8.48;;
9485;SDS011;4781;48.776;9.200;2023-01-29T14:54:20;13.70;;;9.70;;
9485;SDS011;4781;48.776;9.200;2023-01-29T14:56:55;13.03;;;8.90;;
9485;SDS011;4781;48.776;9.200;2023-01-29T14:59:33;16.55;;;12.25;;
9485;SDS011;4781;48.776;9.200;2023-01-29T15:02:11;14.68;;;10.05;;
9485;SDS011;4781;48.776;9.200;2023-01-29T15:04:51;15.75;;;10.68;;
9485;SDS011;4781;48.776;9.200;2023-01-29T15:07:36;15.32;;;9.80;;
9485;SDS011;4781;48.776;9.200;2023-01-29T15:13:16;12.68;;;8.78;;
9485;SDS011;4781;48.776;9.200;2023-01-29T15:15:50;15.10;;;10.28;;
9485;SDS011;4781;48.776;9.200;2023-01-29T15:18:36;13.83;;;10.28;;
9485;SDS011;4781;48.776;9.200;2023-01-29T15:21:10;12.67;;;9.23;;
9485;SDS011;4781;48.776;9.200;2023-01-29T15:26:20;16.00;;;9.60;;
9485;SDS011;4781;48.776;9.200;2023-01-29T15:28:54;14.20;;;9.20;;
9485;SDS011;4781;48.776;9.200;2023-01-29T15:31:24;14.23;;;9.43;;
9485;SDS011;4781;48.776;9.200;2023-01-29T15:33:54;13.30;;;9.15;;
9485;SDS011;4781;48.776;9.200;2023-01-29T15:36:25;15.53;;;9.28;;
9485;SDS011;4781;48.776;9.200;2023-01-29T15:41:47;14.10;;;9.85;;
9485;SDS011;4781;48.776;9.200;2023-01-29T15:44:19;14.03;;;9.50;;
9485;SDS011;4781;48.776;9.200;2023-01-29T15:46:50;13.15;;;9.33;;
9485;SDS011;4781;48.776;9.200;2023-01-29T15:49:33;15.98;;;10.03;;
9485;SDS011;4781;48.776;9.200;2023-01-29T15:52:07;13.53;;;9.13;;
9485;SDS011;4781;48.776;9.200;2023-01-29T15:54:35;12.35;;;9.00;;
9485;SDS011;4781;48.776;9.200;2023-01-29T15:57:03;13.38;;;9.18;;
9485;SDS011;4781;48.776;9.200;2023-01-29T15:59:33;12.80;;;9.78;;
9485;SDS011;4781;48.776;9.200;2023-01-29T16:05:06;14.53;;;9.43;;
9485;SDS011;4781;48.776;9.200;2023-01-29T16:07:40;15.20;;;9.95;;
9485;SDS011;4781;48.776;9.200;2023-01-29T16:10:13;14.30;;;9.40;;
9485;SDS011;4781;48.776;9.200;2023-01-29T16:12:48;14.80;;;9.80;;
9485;SDS011;4781;48.776;9.200;2023-01-29T16:15:25;14.38;;;10.00;;
9485;SDS011;4781;48.776;9.200;2023-01-29T16:18:00;14.10;;;10.43;;
9485;SDS011;4781;48.776;9.200;2023-01-29T16:20:42;13.85;;;9.93;;
9485;SDS011;4781;48.776;9.200;2023-01-29T16:23:23;13.90;;;9.50;;
9485;SDS011;4781;48.776;9.200;2023-01-29T16:25:55;16.60;;;10.88;;
9485;SDS011;4781;48.776;9.200;2023-01-29T16:28:38;13.53;;;10.08;;
9485;SDS011;4781;48.776;9.200;2023-01-29T16:33:40;12.90;;;9.58;;
9485;SDS011;4781;48.776;9.200;2023-01-29T16:36:15;13.80;;;9.35;;
9485;SDS011;4781;48.776;9.200;2023-01-29T16:38:51;15.00;;;9.68;;
9485;SDS011;4781;48.776;9.200;2023-01-29T16:43:57;14.20;;;10.35;;
9485;SDS011;4781;48.776;9.200;2023-01-29T16:46:36;14.30;;;10.20;;
9485;SDS011;4781;48.776;9.200;2023-01-29T16:54:47;17.62;;;10.25;;
9485;SDS011;4781;48.776;9.200;2023-01-29T16:57:20;15.30;;;10.63;;
9485;SDS011;4781;48.776;9.200;2023-01-29T17:02:22;17.30;;;11.53;;
9485;SDS011;4781;48.776;9.200;2023-01-29T17:04:56;15.05;;;9.70;;
9485;SDS011;4781;48.776;9.200;2023-01-29T17:07:30;15.23;;;10.43;;
9485;SDS011;4781;48.776;9.200;2023-01-29T17:10:00;17.92;;;11.25;;
9485;SDS011;4781;48.776;9.200;2023-01-29T17:12:31;17.62;;;11.35;;
9485;SDS011;4781;48.776;9.200;2023-01-29T17:15:02;18.73;;;12.18;;
9485;SDS011;4781;48.776;9.200;2023-01-29T17:17:38;19.70;;;12.15;;
9485;SDS011;4781;48.776;9.200;2023-01-29T17:20:14;19.40;;;13.10;;
9485;SDS011;4781;48.776;9.200;2023-01-29T17:22:43;17.67;;;12.45;;
9485;SDS011;4781;48.776;9.200;2023-01-29T17:25:12;17.82;;;13.20;;
9485;SDS011;4781;48.776;9.200;2023-01-29T17:27:43;19.82;;;11.22;;
9485;SDS011;4781;48.776;9.200;2023-01-29T17:30:14;16.37;;;11.07;;
9485;SDS011;4781;48.776;9.200;2023-01-29T17:32:44;16.05;;;11.03;;
9485;SDS011;4781;48.776;9.200;2023-01-29T17:35:13;16.15;;;10.80;;
9485;SDS011;4781;48.776;9.200;2023-01-29T17:37:42;13.38;;;9.85;;
9485;SDS011;4781;48.776;9.200;2023-01-29T17:40:15;17.42;;;10.35;;
9485;SDS011;4781;48.776;9.200;2023-01-29T17:42:47;17.35;;;10.85;;
9485;SDS011;4781;48.776;9.200;2023-01-29T17:45:15;15.98;;;10.85;;
9485;SDS011;4781;48.776;9.200;2023-01-29T17:47:44;18.12;;;12.13;;
9485;SDS011;4781;48.776;9.200;2023-01-29T17:50:18;17.65;;;11.85;;
9485;SDS011;4781;48.776;9.200;2023-01-29T17:52:50;18.23;;;11.88;;